Time;durP1;ratioP1;P1;durP2;ratioP2;P2;SDS_P1;SDS_P2;PMS_P1;PMS_P2;Temp;Humidity;BMP_temperature;BMP_pressure;BME280_temperature;BME280_humidity;BME280_pressure;Samples;Min_cycle;Max_cycle;Signal;HPM_P1;HPM_P2
2023/07/11 00:00:16;;;;;;;2.47;1.05;;;18.00;99.90;;;;;;5100496;28;20318;-67
2023/07/11 00:02:47;;;;;;;2.33;1.08;;;18.00;99.90;;;;;;5097767;28;20027;-67
2023/07/11 00:05:15;;;;;;;3.60;1.42;;;18.00;99.90;;;;;;5094303;28;20036;-67
2023/07/11 00:07:41;;;;;;;0.98;0.93;;;18.10;99.90;;;;;;5094585;28;20058;-67
2023/07/11 00:10:10;;;;;;;2.40;0.93;;;18.10;99.90;;;;;;5092063;28;20024;-67
2023/07/11 00:12:36;;;;;;;7.28;1.33;;;18.10;99.90;;;;;;5086245;28;20024;-66
2023/07/11 00:15:02;;;;;;;3.93;1.37;;;18.10;99.90;;;;;;5079257;28;20057;-67
2023/07/11 00:17:27;;;;;;;3.10;1.05;;;18.10;99.90;;;;;;5115488;28;20276;-66
2023/07/11 00:19:57;;;;;;;2.77;0.83;;;18.10;99.90;;;;;;5116152;28;20328;-66
2023/07/11 00:22:24;;;;;;;2.03;1.27;;;18.10;99.90;;;;;;5115304;27;20032;-67
2023/07/11 00:24:50;;;;;;;2.78;1.38;;;18.10;99.90;;;;;;5105819;28;20055;-67
2023/07/11 00:27:17;;;;;;;2.15;1.17;;;18.00;99.90;;;;;;5112014;28;20139;-66
2023/07/11 00:29:43;;;;;;;6.97;1.10;;;17.90;99.90;;;;;;5115203;28;20039;-66
2023/07/11 00:32:10;;;;;;;1.92;1.00;;;17.90;99.90;;;;;;5115302;28;20398;-88
2023/07/11 00:34:35;;;;;;;1.05;0.93;;;18.00;99.90;;;;;;5114605;28;20114;-67
2023/07/11 00:37:01;;;;;;;2.13;1.20;;;18.00;99.90;;;;;;5104077;28;20099;-66
2023/07/11 00:39:29;;;;;;;1.83;1.25;;;18.10;99.90;;;;;;5114551;28;20028;-66
2023/07/11 00:41:55;;;;;;;4.68;1.20;;;18.10;99.90;;;;;;5115730;28;20061;-66
2023/07/11 00:44:21;;;;;;;1.48;1.10;;;18.10;99.90;;;;;;5110905;28;20028;-86
2023/07/11 00:46:47;;;;;;;1.83;0.97;;;18.10;99.90;;;;;;5117371;28;20042;-66
2023/07/11 00:49:16;;;;;;;2.65;1.10;;;18.10;99.90;;;;;;5104789;28;20033;-87
2023/07/11 00:51:48;;;;;;;1.77;1.08;;;18.10;99.90;;;;;;5114755;28;20016;-66
2023/07/11 00:54:16;;;;;;;2.88;1.42;;;18.00;99.90;;;;;;5114268;28;20027;-66
2023/07/11 00:56:45;;;;;;;4.18;1.10;;;17.90;99.90;;;;;;5114836;28;20076;-67
2023/07/11 00:59:14;;;;;;;2.88;1.10;;;17.90;99.90;;;;;;5107563;28;20035;-66
2023/07/11 01:01:42;;;;;;;3.50;1.13;;;17.90;99.90;;;;;;5108378;28;20024;-66
2023/07/11 01:04:08;;;;;;;1.50;1.15;;;17.90;99.90;;;;;;5112051;28;20149;-81
2023/07/11 01:06:34;;;;;;;3.78;0.90;;;17.90;99.90;;;;;;5107403;28;20110;-67
2023/07/11 01:09:04;;;;;;;2.83;1.08;;;17.90;99.90;;;;;;5103728;28;20422;-66
2023/07/11 01:11:47;;;;;;;1.02;0.80;;;17.90;99.90;;;;;;5113367;28;20035;-66
2023/07/11 01:14:13;;;;;;;2.08;0.68;;;17.90;99.90;;;;;;5106008;28;20027;-67
2023/07/11 01:16:43;;;;;;;0.67;0.67;;;17.80;99.90;;;;;;5112357;28;20110;-66
2023/07/11 01:19:09;;;;;;;3.38;0.93;;;17.80;99.90;;;;;;5110926;28;20019;-83
2023/07/11 01:21:35;;;;;;;2.20;0.80;;;17.80;99.90;;;;;;5113751;28;20035;-66
2023/07/11 01:24:01;;;;;;;4.93;0.80;;;17.70;99.90;;;;;;5114367;28;20493;-66
2023/07/11 01:26:26;;;;;;;1.20;1.00;;;17.70;99.90;;;;;;5115382;28;20031;-66
2023/07/11 01:28:52;;;;;;;1.03;0.80;;;17.70;99.90;;;;;;5113551;28;20023;-66
2023/07/11 01:31:18;;;;;;;5.63;0.90;;;17.80;99.90;;;;;;5114213;28;20024;-66
2023/07/11 01:33:44;;;;;;;0.93;0.80;;;17.70;99.90;;;;;;5094703;28;20024;-66
2023/07/11 01:36:10;;;;;;;2.90;1.00;;;17.70;99.90;;;;;;5114524;28;20047;-66
2023/07/11 01:38:35;;;;;;;1.70;0.83;;;17.60;99.90;;;;;;5113516;28;20280;-66
2023/07/11 01:41:01;;;;;;;1.17;0.77;;;17.60;99.90;;;;;;5108849;28;20055;-66
2023/07/11 01:43:27;;;;;;;4.00;1.03;;;17.60;99.90;;;;;;5104447;28;20059;-66
2023/07/11 01:45:53;;;;;;;3.40;1.20;;;17.50;99.90;;;;;;5113222;28;20322;-66
2023/07/11 01:48:19;;;;;;;2.10;0.77;;;17.50;99.90;;;;;;5114081;28;20031;-67
2023/07/11 01:50:44;;;;;;;1.03;0.90;;;17.40;99.90;;;;;;5113089;28;20272;-66
2023/07/11 01:53:10;;;;;;;1.10;1.00;;;17.40;99.90;;;;;;5111280;28;20036;-66
2023/07/11 01:55:37;;;;;;;1.33;1.07;;;17.30;99.90;;;;;;5084460;28;20032;-67
2023/07/11 01:58:02;;;;;;;1.23;0.80;;;17.20;99.90;;;;;;5114176;28;20106;-66
2023/07/11 02:00:28;;;;;;;1.93;0.87;;;17.20;99.90;;;;;;5108860;28;20119;-66
2023/07/11 02:02:54;;;;;;;4.77;1.07;;;17.20;99.90;;;;;;5114170;28;20027;-66
2023/07/11 02:05:21;;;;;;;0.70;0.70;;;17.20;99.90;;;;;;5112097;28;20027;-66
2023/07/11 02:07:46;;;;;;;2.15;0.90;;;17.20;99.90;;;;;;5112424;27;20119;-66
2023/07/11 02:10:12;;;;;;;1.50;1.40;;;17.20;99.90;;;;;;5113039;28;20102;-66
2023/07/11 02:12:38;;;;;;;2.37;1.03;;;17.10;99.90;;;;;;5101917;28;20030;-66
2023/07/11 02:15:04;;;;;;;2.53;1.10;;;17.20;99.90;;;;;;5110286;28;20078;-66
2023/07/11 02:17:30;;;;;;;1.13;1.00;;;17.10;99.90;;;;;;5095230;28;20069;-66
2023/07/11 02:19:55;;;;;;;1.67;1.00;;;17.10;99.90;;;;;;5112479;28;20040;-68
2023/07/11 02:22:22;;;;;;;3.30;0.83;;;17.10;99.90;;;;;;5107614;28;20038;-66
2023/07/11 02:24:48;;;;;;;;;;;17.10;99.90;;;;;;5113953;28;20422;-66
2023/07/11 02:27:14;;;;;;;1.87;1.27;;;17.10;99.90;;;;;;5107657;28;20063;-66
2023/07/11 02:29:39;;;;;;;1.50;0.90;;;17.10;99.90;;;;;;5097474;28;20311;-67
2023/07/11 02:32:05;;;;;;;1.57;0.87;;;17.10;99.90;;;;;;5092147;28;20058;-67
2023/07/11 02:34:31;;;;;;;4.97;1.00;;;17.10;99.90;;;;;;5113472;28;20291;-66
2023/07/11 02:36:57;;;;;;;1.30;0.97;;;17.10;99.90;;;;;;5113145;28;20038;-66
2023/07/11 02:39:22;;;;;;;1.20;1.00;;;17.10;99.90;;;;;;5114159;28;20024;-66
2023/07/11 02:41:48;;;;;;;2.93;1.00;;;17.10;99.90;;;;;;5113557;28;20034;-66
2023/07/11 02:44:14;;;;;;;6.37;1.33;;;17.10;99.90;;;;;;5095812;28;20030;-66
2023/07/11 02:46:40;;;;;;;2.20;1.10;;;17.10;99.90;;;;;;5111919;28;20092;-66
2023/07/11 02:49:08;;;;;;;2.87;0.93;;;17.10;99.90;;;;;;5111587;28;20272;-66
2023/07/11 02:51:35;;;;;;;2.75;0.80;;;17.10;99.90;;;;;;5115294;28;20028;-66
2023/07/11 02:54:02;;;;;;;3.05;0.77;;;17.10;99.90;;;;;;5105993;28;20019;-86
2023/07/11 02:56:28;;;;;;;1.33;1.10;;;17.10;99.90;;;;;;5114855;28;20088;-66
2023/07/11 02:58:53;;;;;;;1.53;0.80;;;17.00;99.90;;;;;;5112255;28;20039;-65
2023/07/11 03:01:19;;;;;;;1.00;0.90;;;17.00;99.90;;;;;;5100787;28;20034;-66
2023/07/11 03:03:45;;;;;;;3.97;1.00;;;17.00;99.90;;;;;;5114810;28;20031;-65
2023/07/11 03:06:11;;;;;;;2.73;0.60;;;17.10;99.90;;;;;;5110255;28;20028;-66
2023/07/11 03:08:37;;;;;;;3.75;1.00;;;17.10;99.90;;;;;;5106554;28;20272;-66
2023/07/11 03:11:03;;;;;;;1.00;0.90;;;17.00;99.90;;;;;;5097184;28;20032;-83
2023/07/11 03:13:29;;;;;;;1.75;1.05;;;17.00;99.90;;;;;;5112794;28;20015;-66
2023/07/11 03:15:55;;;;;;;1.50;1.00;;;17.00;99.90;;;;;;5107672;28;20115;-86
2023/07/11 03:18:21;;;;;;;0.63;0.63;;;17.00;99.90;;;;;;5111619;28;20113;-65
2023/07/11 03:20:47;;;;;;;1.05;0.70;;;17.00;99.90;;;;;;5100250;28;20024;-66
2023/07/11 03:23:14;;;;;;;4.03;0.80;;;17.10;99.90;;;;;;5111097;28;20302;-64
2023/07/11 03:25:41;;;;;;;2.60;1.00;;;17.10;99.90;;;;;;5113441;28;20012;-65
2023/07/11 03:28:07;;;;;;;1.90;0.85;;;17.10;99.90;;;;;;5104867;28;20019;-77
2023/07/11 03:30:35;;;;;;;4.13;1.38;;;17.10;99.90;;;;;;5108621;28;20039;-65
2023/07/11 03:33:01;;;;;;;4.00;1.10;;;17.10;99.90;;;;;;5106775;28;20047;-65
2023/07/11 03:35:27;;;;;;;1.20;1.00;;;17.10;99.90;;;;;;5108728;28;20023;-65
2023/07/11 03:37:53;;;;;;;3.93;1.33;;;17.20;99.90;;;;;;5108533;28;20024;-65
2023/07/11 03:40:19;;;;;;;1.67;1.10;;;17.10;99.90;;;;;;5109527;28;20122;-65
2023/07/11 03:42:44;;;;;;;1.83;1.10;;;17.10;99.90;;;;;;5108136;28;20357;-65
2023/07/11 03:45:10;;;;;;;1.43;0.90;;;17.10;99.90;;;;;;5104354;28;20035;-65
2023/07/11 03:47:36;;;;;;;4.33;1.20;;;17.20;99.90;;;;;;5097275;28;20429;-66
2023/07/11 03:50:02;;;;;;;4.75;0.88;;;17.10;99.90;;;;;;5105600;28;20076;-66
2023/07/11 03:52:28;;;;;;;0.80;0.80;;;17.10;99.90;;;;;;5109912;28;20364;-65
2023/07/11 03:54:54;;;;;;;3.30;1.03;;;17.10;99.90;;;;;;5109708;28;20268;-86
2023/07/11 03:57:19;;;;;;;3.60;1.25;;;17.10;99.90;;;;;;5112596;27;20314;-65
2023/07/11 03:59:45;;;;;;;2.07;0.90;;;17.00;99.90;;;;;;5092444;27;20039;-65
2023/07/11 04:02:11;;;;;;;1.58;1.05;;;17.00;99.90;;;;;;5108019;28;20030;-65
2023/07/11 04:04:37;;;;;;;4.83;1.37;;;17.00;99.90;;;;;;5108126;28;20035;-65
2023/07/11 04:07:04;;;;;;;2.37;1.30;;;16.90;99.90;;;;;;5105463;28;20110;-65
2023/07/11 04:09:29;;;;;;;2.95;1.42;;;16.90;99.90;;;;;;5103034;28;20019;-65
2023/07/11 04:11:55;;;;;;;5.33;1.43;;;16.80;99.90;;;;;;5103675;28;20032;-69
2023/07/11 04:14:21;;;;;;;3.57;1.80;;;16.80;99.90;;;;;;5107072;28;20032;-65
2023/07/11 04:16:47;;;;;;;2.00;1.60;;;16.80;99.90;;;;;;5109415;28;20023;-65
2023/07/11 04:19:13;;;;;;;3.60;2.00;;;16.80;99.90;;;;;;5099222;28;20028;-65
2023/07/11 04:21:39;;;;;;;2.47;1.93;;;16.90;99.90;;;;;;5109291;28;20031;-65
2023/07/11 04:24:05;;;;;;;5.13;2.00;;;16.90;99.90;;;;;;5116851;28;20030;-65
2023/07/11 04:26:31;;;;;;;4.10;1.83;;;17.00;99.90;;;;;;5115333;28;20042;-65
2023/07/11 04:28:56;;;;;;;3.30;2.10;;;17.00;99.90;;;;;;5116144;28;20024;-66
2023/07/11 04:31:22;;;;;;;4.30;2.47;;;17.00;99.90;;;;;;5115390;28;20103;-66
2023/07/11 04:33:48;;;;;;;3.20;2.03;;;17.00;99.90;;;;;;5116150;28;20390;-65
2023/07/11 04:36:16;;;;;;;5.40;2.40;;;17.00;99.90;;;;;;5113664;27;20023;-66
2023/07/11 04:38:43;;;;;;;3.58;2.00;;;17.00;99.90;;;;;;5113664;27;20307;-66
2023/07/11 04:41:09;;;;;;;4.88;1.83;;;17.00;99.90;;;;;;5107345;28;20023;-83
2023/07/11 04:43:35;;;;;;;5.72;1.90;;;17.10;99.90;;;;;;5110327;28;20035;-66
2023/07/11 04:46:03;;;;;;;3.63;1.93;;;17.10;99.90;;;;;;5105992;28;20034;-65
2023/07/11 04:48:30;;;;;;;4.25;2.17;;;17.20;99.90;;;;;;5105876;28;20028;-66
2023/07/11 04:51:02;;;;;;;3.92;1.92;;;17.30;99.90;;;;;;5108509;28;20024;-66
2023/07/11 04:53:29;;;;;;;8.07;2.33;;;17.40;99.90;;;;;;5110615;28;20123;-68
2023/07/11 04:56:00;;;;;;;4.32;2.45;;;17.50;99.90;;;;;;5111844;27;20031;-66
2023/07/11 04:58:31;;;;;;;7.97;2.45;;;17.50;99.90;;;;;;5104225;28;20036;-65
2023/07/11 05:01:00;;;;;;;2.25;1.77;;;17.50;99.90;;;;;;5102975;28;20020;-80
2023/07/11 05:03:27;;;;;;;5.43;2.38;;;17.50;99.90;;;;;;5098489;28;20016;-65
2023/07/11 05:05:53;;;;;;;5.65;2.38;;;17.60;99.90;;;;;;5101732;28;20051;-89
2023/07/11 05:08:19;;;;;;;6.80;2.08;;;17.60;99.90;;;;;;5103500;28;20838;-66
2023/07/11 05:10:51;;;;;;;3.07;2.17;;;17.60;99.90;;;;;;5109918;28;20107;-65
2023/07/11 05:13:18;;;;;;;6.15;2.70;;;17.60;99.90;;;;;;5110205;28;20063;-65
2023/07/11 05:15:43;;;;;;;3.38;2.30;;;17.70;99.90;;;;;;5108568;28;20046;-66
2023/07/11 05:18:09;;;;;;;3.27;1.77;;;17.70;99.90;;;;;;5105107;28;20027;-66
2023/07/11 05:20:34;;;;;;;3.17;2.23;;;17.80;99.90;;;;;;5115548;28;20046;-66
2023/07/11 05:23:00;;;;;;;5.80;2.40;;;17.90;99.90;;;;;;5115535;28;20051;-66
2023/07/11 05:25:26;;;;;;;3.97;2.70;;;18.00;99.90;;;;;;5109863;28;20020;-65
2023/07/11 05:27:51;;;;;;;8.33;2.73;;;18.10;99.90;;;;;;5114916;28;20023;-66
2023/07/11 05:30:17;;;;;;;4.60;2.73;;;18.20;99.90;;;;;;5113374;28;20058;-65
2023/07/11 05:32:43;;;;;;;5.20;2.50;;;18.30;99.90;;;;;;5114243;28;20441;-66
2023/07/11 05:35:09;;;;;;;6.67;3.17;;;18.40;99.90;;;;;;5089127;28;20024;-66
2023/07/11 05:37:35;;;;;;;6.03;4.13;;;18.50;99.90;;;;;;5116084;28;20475;-66
2023/07/11 05:40:01;;;;;;;8.90;4.17;;;18.60;99.90;;;;;;5114929;28;20150;-66
2023/07/11 05:42:26;;;;;;;8.53;4.17;;;18.70;99.90;;;;;;5115554;28;20268;-88
2023/07/11 05:44:54;;;;;;;9.87;4.80;;;18.70;99.90;;;;;;5113682;28;20035;-87
2023/07/11 05:47:20;;;;;;;6.97;4.53;;;18.80;99.90;;;;;;5115220;28;20093;-65
2023/07/11 05:49:46;;;;;;;8.83;4.83;;;18.90;99.90;;;;;;5115674;28;20094;-65
2023/07/11 05:52:12;;;;;;;9.50;5.77;;;19.00;99.90;;;;;;5115158;28;20248;-88
2023/07/11 05:54:37;;;;;;;8.93;5.97;;;19.00;99.90;;;;;;5113425;28;20019;-65
2023/07/11 05:57:04;;;;;;;13.40;5.83;;;19.10;99.90;;;;;;5115855;28;20357;-88
2023/07/11 05:59:29;;;;;;;10.15;5.95;;;19.10;99.90;;;;;;5115553;28;20107;-65
2023/07/11 06:01:55;;;;;;;7.97;5.40;;;19.10;99.90;;;;;;5102122;28;20174;-65
2023/07/11 06:04:21;;;;;;;8.63;5.43;;;19.10;99.90;;;;;;5111108;28;20089;-65
2023/07/11 06:06:46;;;;;;;8.97;5.50;;;19.10;99.90;;;;;;5115237;28;20034;-65
2023/07/11 06:09:15;;;;;;;10.40;6.20;;;19.20;99.90;;;;;;5114202;28;20070;-66
2023/07/11 06:11:41;;;;;;;8.68;5.50;;;19.30;99.90;;;;;;5115056;28;20023;-65
2023/07/11 06:14:07;;;;;;;10.55;5.28;;;19.30;99.90;;;;;;5112532;27;20023;-66
2023/07/11 06:16:33;;;;;;;9.30;6.03;;;19.50;99.90;;;;;;5101537;28;20106;-66
2023/07/11 06:18:59;;;;;;;7.37;5.37;;;19.60;99.90;;;;;;5114310;28;20466;-66
2023/07/11 06:21:25;;;;;;;6.63;5.27;;;19.60;99.90;;;;;;5115411;28;20418;-66
2023/07/11 06:23:51;;;;;;;8.30;5.47;;;19.80;99.90;;;;;;5112649;28;20042;-66
2023/07/11 06:26:17;;;;;;;8.77;5.05;;;19.80;99.90;;;;;;5105766;28;20114;-65
2023/07/11 06:28:43;;;;;;;9.65;5.05;;;19.90;99.90;;;;;;5107710;28;20020;-66
2023/07/11 06:31:11;;;;;;;8.57;5.10;;;20.00;99.90;;;;;;5107986;27;20485;-65
2023/07/11 06:33:37;;;;;;;8.95;5.00;;;20.10;99.90;;;;;;5109057;28;20080;-65
2023/07/11 06:36:05;;;;;;;7.57;4.10;;;20.20;99.90;;;;;;5106388;28;20024;-83
2023/07/11 06:38:31;;;;;;;6.40;4.82;;;20.30;99.90;;;;;;5105109;27;20078;-66
2023/07/11 06:40:57;;;;;;;10.27;4.65;;;20.40;99.90;;;;;;5111319;27;20360;-66
2023/07/11 06:43:25;;;;;;;6.32;4.93;;;20.50;99.90;;;;;;5087882;28;20059;-67
2023/07/11 06:45:55;;;;;;;10.85;5.05;;;20.60;99.90;;;;;;5113920;28;20016;-67
2023/07/11 06:48:24;;;;;;;9.82;4.72;;;20.60;99.90;;;;;;5113748;28;20015;-66
2023/07/11 06:51:10;;;;;;;7.78;5.43;;;20.70;99.90;;;;;;5108892;28;20024;-65
2023/07/11 06:53:35;;;;;;;10.32;4.65;;;20.80;99.90;;;;;;5112205;28;20039;-66
2023/07/11 06:56:03;;;;;;;10.57;4.55;;;21.00;99.90;;;;;;5110184;28;20031;-66
2023/07/11 06:58:28;;;;;;;9.50;4.22;;;21.10;99.90;;;;;;5111673;28;20026;-88
2023/07/11 07:00:58;;;;;;;8.57;3.40;;;21.20;99.90;;;;;;5106410;28;20021;-66
2023/07/11 07:03:24;;;;;;;4.88;3.35;;;21.30;99.90;;;;;;5114659;28;20024;-67
2023/07/11 07:05:55;;;;;;;;;;;21.40;99.90;;;;;;5090544;28;20066;-66
2023/07/11 07:08:22;;;;;;;6.40;3.08;;;21.50;99.90;;;;;;5108569;28;19914;-66
2023/07/11 07:10:49;;;;;;;4.60;2.65;;;21.60;99.90;;;;;;5107135;28;20027;-65
2023/07/11 07:13:17;;;;;;;7.22;2.60;;;21.70;99.90;;;;;;5108208;28;20061;-66
2023/07/11 07:15:48;;;;;;;6.22;2.50;;;21.80;99.90;;;;;;5100895;28;20040;-67
2023/07/11 07:18:14;;;;;;;6.40;2.50;;;21.90;99.90;;;;;;5112713;28;20141;-66
2023/07/11 07:20:40;;;;;;;6.53;2.70;;;22.00;99.90;;;;;;5113605;28;20478;-66
2023/07/11 07:23:09;;;;;;;5.93;1.98;;;22.20;99.90;;;;;;5112780;28;20137;-71
2023/07/11 07:25:36;;;;;;;8.77;2.28;;;22.30;99.90;;;;;;5112607;28;20429;-67
2023/07/11 07:28:02;;;;;;;4.05;1.63;;;22.40;99.90;;;;;;5110977;28;20043;-68
2023/07/11 07:30:27;;;;;;;9.65;2.40;;;22.50;99.90;;;;;;5113131;28;20035;-66
2023/07/11 07:32:53;;;;;;;5.05;1.88;;;22.60;99.90;;;;;;5114121;28;20327;-67
2023/07/11 07:35:20;;;;;;;4.47;1.83;;;22.80;99.90;;;;;;5108356;28;20027;-67
2023/07/11 07:37:46;;;;;;;3.35;2.15;;;23.00;99.90;;;;;;5105102;28;20032;-65
2023/07/11 07:40:12;;;;;;;1.85;1.50;;;23.20;99.90;;;;;;5098950;28;20024;-66
2023/07/11 07:42:38;;;;;;;6.60;1.43;;;23.30;99.90;;;;;;5111254;28;20077;-66
2023/07/11 07:45:04;;;;;;;3.03;1.60;;;23.50;99.90;;;;;;5106197;28;20252;-67
2023/07/11 07:47:30;;;;;;;2.65;1.98;;;23.60;99.90;;;;;;5113424;28;20309;-66
2023/07/11 07:49:56;;;;;;;2.05;1.30;;;23.60;99.90;;;;;;5113461;28;20032;-67
2023/07/11 07:52:24;;;;;;;3.00;2.15;;;23.60;99.90;;;;;;5113490;28;20016;-67
2023/07/11 07:54:50;;;;;;;2.10;1.40;;;23.70;99.90;;;;;;5109437;28;20070;-67
2023/07/11 07:57:16;;;;;;;3.67;1.83;;;23.70;99.90;;;;;;5110361;28;20097;-74
2023/07/11 07:59:41;;;;;;;3.40;1.30;;;23.80;99.90;;;;;;5112533;28;20023;-67
2023/07/11 08:02:09;;;;;;;7.53;1.57;;;23.90;99.90;;;;;;5112460;28;20295;-67
2023/07/11 08:04:35;;;;;;;2.00;1.55;;;24.00;99.90;;;;;;5101934;28;20027;-66
2023/07/11 08:07:01;;;;;;;2.65;1.35;;;24.10;99.90;;;;;;5115757;28;20334;-68
2023/07/11 08:09:29;;;;;;;3.80;1.73;;;24.20;99.90;;;;;;5113961;28;20043;-68
2023/07/11 08:12:03;;;;;;;5.00;1.63;;;24.30;99.90;;;;;;5103739;28;20051;-67
2023/07/11 08:14:29;;;;;;;4.03;1.75;;;24.50;99.90;;;;;;5109624;28;20326;-68
2023/07/11 08:16:54;;;;;;;5.00;1.90;;;24.70;99.90;;;;;;5104335;28;20027;-87
2023/07/11 08:19:20;;;;;;;3.72;1.60;;;24.70;99.90;;;;;;5096249;28;20414;-67
2023/07/11 08:21:46;;;;;;;3.33;1.60;;;24.80;99.90;;;;;;5117328;28;20032;-69
2023/07/11 08:24:12;;;;;;;7.13;1.67;;;24.80;99.90;;;;;;5117123;28;20063;-68
2023/07/11 08:26:38;;;;;;;3.47;1.60;;;24.90;99.90;;;;;;5116567;28;20072;-67
2023/07/11 08:29:04;;;;;;;4.40;1.70;;;25.00;99.90;;;;;;5117167;27;20418;-67
2023/07/11 08:31:29;;;;;;;3.63;1.30;;;25.10;99.90;;;;;;5117451;28;20108;-67
2023/07/11 08:33:55;;;;;;;8.97;2.00;;;25.20;99.90;;;;;;5116145;28;20606;-68
2023/07/11 08:36:21;;;;;;;3.73;1.40;;;25.30;99.90;;;;;;5088507;28;20419;-67
2023/07/11 08:38:47;;;;;;;4.55;1.70;;;25.40;99.90;;;;;;5113189;28;20030;-85
2023/07/11 08:41:27;;;;;;;6.80;1.60;;;25.50;99.90;;;;;;5110387;28;20050;-86
2023/07/11 08:43:57;;;;;;;3.35;1.48;;;25.50;99.90;;;;;;5111231;28;20028;-67
2023/07/11 08:46:26;;;;;;;2.25;1.25;;;25.70;99.90;;;;;;5110360;28;20418;-94
2023/07/11 08:48:58;;;;;;;6.32;1.50;;;25.70;99.90;;;;;;5114054;28;20031;-84
2023/07/11 08:51:30;;;;;;;3.88;1.52;;;25.80;99.90;;;;;;5116126;28;20028;-68
2023/07/11 08:54:01;;;;;;;3.88;1.30;;;25.90;99.90;;;;;;5115414;28;20474;-67
2023/07/11 08:56:43;;;;;;;6.50;1.52;;;26.00;99.90;;;;;;5111292;28;20089;-67
2023/07/11 08:59:18;;;;;;;4.88;1.60;;;26.00;99.90;;;;;;5108120;28;20049;-68
2023/07/11 09:01:53;;;;;;;2.60;1.70;;;26.10;99.90;;;;;;5111218;28;20410;-68
2023/07/11 09:04:22;;;;;;;3.85;1.35;;;26.20;99.90;;;;;;5107173;28;20039;-67
2023/07/11 09:06:57;;;;;;;3.78;1.60;;;26.30;99.90;;;;;;5100756;28;20054;-67
2023/07/11 09:09:24;;;;;;;4.50;2.22;;;26.40;99.90;;;;;;5105404;28;20052;-85
2023/07/11 09:12:07;;;;;;;4.80;1.55;;;26.50;99.90;;;;;;5096664;28;20016;-82
2023/07/11 09:14:39;;;;;;;5.32;1.45;;;26.70;99.90;;;;;;5108015;28;20032;-67
2023/07/11 09:17:23;;;;;;;6.57;1.98;;;26.70;99.90;;;;;;5071444;28;20324;-67
2023/07/11 09:20:11;;;;;;;7.43;1.30;;;26.70;99.90;;;;;;5095723;28;20028;-68
2023/07/11 09:23:13;;;;;;;2.95;1.77;;;26.80;99.90;;;;;;5076261;28;20095;-69
2023/07/11 09:25:42;;;;;;;2.83;1.40;;;26.90;99.90;;;;;;5045727;28;20092;-82
2023/07/11 09:28:13;;;;;;;10.23;1.85;;;26.90;99.90;;;;;;5033504;28;20428;-82
2023/07/11 09:30:50;;;;;;;4.55;1.38;;;26.80;99.90;;;;;;5047740;28;20052;-80
2023/07/11 09:33:27;;;;;;;3.63;1.33;;;26.70;99.90;;;;;;5034249;28;20030;-77
2023/07/11 09:35:55;;;;;;;6.07;1.80;;;26.70;99.90;;;;;;5046197;28;20041;-80
2023/07/11 09:38:35;;;;;;;4.47;1.50;;;26.80;99.90;;;;;;5038282;28;20622;-67
2023/07/11 09:41:15;;;;;;;5.00;1.20;;;26.80;99.90;;;;;;5044876;28;20028;-67
2023/07/11 09:43:40;;;;;;;4.07;1.67;;;27.00;99.90;;;;;;5045564;28;20029;-66
2023/07/11 09:46:13;;;;;;;3.78;1.40;;;26.90;99.90;;;;;;5039547;28;20029;-68
2023/07/11 09:48:40;;;;;;;3.03;1.58;;;26.90;99.90;;;;;;5050593;28;20041;-68
2023/07/11 09:51:24;;;;;;;2.05;1.23;;;26.70;99.90;;;;;;5052882;28;20032;-67
2023/07/11 09:53:55;;;;;;;6.32;1.80;;;26.90;99.90;;;;;;5050653;28;20029;-80
2023/07/11 09:56:22;;;;;;;17.50;10.75;;;27.00;99.90;;;;;;5053131;28;20079;-67
2023/07/11 09:58:54;;;;;;;2.72;1.40;;;26.90;99.90;;;;;;5052702;28;20020;-80
2023/07/11 10:01:32;;;;;;;2.47;1.30;;;26.90;99.90;;;;;;5057386;28;20403;-67
2023/07/11 10:04:00;;;;;;;2.90;1.10;;;26.90;99.90;;;;;;5091674;28;20107;-66
2023/07/11 10:07:04;;;;;;;2.53;1.40;;;27.00;99.90;;;;;;5094915;28;20032;-83
2023/07/11 10:09:32;;;;;;;2.92;1.23;;;27.20;99.90;;;;;;5012433;28;20052;-85
2023/07/11 10:12:14;;;;;;;2.05;0.98;;;27.30;99.90;;;;;;5013041;28;20562;-66
2023/07/11 10:14:43;;;;;;;1.70;1.35;;;27.30;99.90;;;;;;5016403;28;20538;-67
2023/07/11 10:17:25;;;;;;;3.97;1.52;;;27.40;99.90;;;;;;5019223;28;20515;-68
2023/07/11 10:19:56;;;;;;;4.85;1.60;;;27.50;99.90;;;;;;5015752;28;20033;-84
2023/07/11 10:22:26;;;;;;;4.72;1.77;;;27.50;99.90;;;;;;5032837;28;20063;-81
2023/07/11 10:25:01;;;;;;;3.67;1.40;;;27.80;99.90;;;;;;5032441;28;20033;-67
2023/07/11 10:27:31;;;;;;;2.88;1.50;;;27.90;99.90;;;;;;5019455;28;20030;-67
2023/07/11 10:30:01;;;;;;;2.80;1.48;;;28.00;99.90;;;;;;5031861;28;20124;-68
2023/07/11 10:32:40;;;;;;;4.78;1.40;;;27.90;99.90;;;;;;5030539;28;20039;-67
2023/07/11 10:35:14;;;;;;;4.60;1.60;;;27.90;99.90;;;;;;5012025;28;20460;-72
2023/07/11 10:37:53;;;;;;;4.13;2.10;;;28.00;99.90;;;;;;5031951;28;20040;-68
2023/07/11 10:40:23;;;;;;;4.15;1.40;;;27.90;99.90;;;;;;5031859;28;20056;-68
2023/07/11 10:42:56;;;;;;;4.43;1.38;;;27.80;99.90;;;;;;5032189;28;20029;-67
2023/07/11 10:45:28;;;;;;;4.65;1.33;;;27.70;99.90;;;;;;5072455;28;20039;-67
2023/07/11 10:47:57;;;;;;;5.95;1.48;;;27.70;99.90;;;;;;5108687;28;20030;-67
2023/07/11 10:50:39;;;;;;;2.72;1.30;;;27.80;99.90;;;;;;5096061;28;20051;-81
2023/07/11 10:53:22;;;;;;;6.10;1.60;;;28.10;99.90;;;;;;5107384;28;20019;-67
2023/07/11 10:56:13;;;;;;;3.47;1.52;;;28.30;99.90;;;;;;5097581;28;20024;-68
2023/07/11 10:58:38;;;;;;;1.73;1.35;;;28.30;99.90;;;;;;5086045;28;20418;-68
2023/07/11 11:01:35;;;;;;;3.03;1.23;;;28.20;99.90;;;;;;5103825;28;20023;-67
2023/07/11 11:04:26;;;;;;;5.32;1.80;;;27.80;99.90;;;;;;5109490;28;20411;-66
2023/07/11 11:07:01;;;;;;;2.88;1.42;;;27.80;99.90;;;;;;5114738;28;20027;-83
2023/07/11 11:09:40;;;;;;;3.38;1.60;;;27.60;99.90;;;;;;5108889;28;20028;-67
2023/07/11 11:12:25;;;;;;;1.90;1.25;;;27.80;99.90;;;;;;5103411;28;20024;-68
2023/07/11 11:15:13;;;;;;;2.97;1.70;;;27.90;99.90;;;;;;5109146;28;20130;-77
2023/07/11 11:17:53;;;;;;;2.30;1.52;;;27.90;99.90;;;;;;5101248;28;20035;-68
2023/07/11 11:20:37;;;;;;;4.78;1.42;;;27.90;99.90;;;;;;5104285;28;20038;-67
2023/07/11 11:23:25;;;;;;;3.85;1.67;;;28.10;99.90;;;;;;5092816;28;20596;-67
2023/07/11 11:26:03;;;;;;;1.63;1.30;;;28.10;99.90;;;;;;5101644;28;20103;-67
2023/07/11 11:28:37;;;;;;;2.33;1.70;;;28.30;99.90;;;;;;5113105;28;20031;-67
2023/07/11 11:31:02;;;;;;;3.95;1.30;;;28.20;99.90;;;;;;5108551;28;20035;-85
2023/07/11 11:33:36;;;;;;;4.30;1.48;;;28.20;99.90;;;;;;5111919;28;20020;-67
2023/07/11 11:36:14;;;;;;;3.85;1.50;;;28.30;99.90;;;;;;5091267;28;20367;-68
2023/07/11 11:39:04;;;;;;;3.90;1.33;;;28.50;99.90;;;;;;5110325;28;20027;-67
2023/07/11 11:41:41;;;;;;;4.03;1.60;;;28.60;99.90;;;;;;5091150;28;20019;-68
2023/07/11 11:44:20;;;;;;;4.90;1.98;;;28.40;99.90;;;;;;5091799;28;20030;-68
2023/07/11 11:46:47;;;;;;;2.67;1.42;;;28.50;99.90;;;;;;5117901;28;20028;-73
2023/07/11 11:49:14;;;;;;;4.93;1.60;;;28.40;99.90;;;;;;5114615;28;20031;-67
2023/07/11 11:51:41;;;;;;;3.20;1.33;;;28.30;99.90;;;;;;5114710;28;20342;-68
2023/07/11 11:54:23;;;;;;;5.00;1.50;;;28.60;99.90;;;;;;5116299;28;20047;-67
2023/07/11 11:56:54;;;;;;;3.88;1.85;;;28.90;99.90;;;;;;5116514;28;20024;-67
2023/07/11 11:59:23;;;;;;;1.63;1.27;;;28.90;99.90;;;;;;5117084;28;20080;-67
2023/07/11 12:01:55;;;;;;;3.20;1.20;;;28.60;99.90;;;;;;5117913;28;20102;-68
2023/07/11 12:04:27;;;;;;;2.60;1.60;;;28.50;99.90;;;;;;5116580;28;20024;-91
2023/07/11 12:07:02;;;;;;;2.33;1.27;;;28.20;99.90;;;;;;5118176;28;20028;-67
2023/07/11 12:09:35;;;;;;;6.65;2.05;;;27.90;99.90;;;;;;5117132;28;20024;-90
2023/07/11 12:12:07;;;;;;;3.88;1.63;;;28.10;99.90;;;;;;5107673;28;20076;-67
2023/07/11 12:14:43;;;;;;;2.80;1.77;;;28.00;99.90;;;;;;5097585;28;20135;-68
2023/07/11 12:17:29;;;;;;;2.40;1.70;;;27.90;99.90;;;;;;5105709;28;20037;-90
2023/07/11 12:20:03;;;;;;;;;;;28.00;99.90;;;;;;5105077;28;20044;-84
2023/07/11 12:22:38;;;;;;;2.92;1.60;;;27.80;99.90;;;;;;5117187;28;19904;-68
2023/07/11 12:25:06;;;;;;;8.73;1.90;;;27.80;99.90;;;;;;5116992;28;20082;-78
2023/07/11 12:27:32;;;;;;;4.80;1.20;;;27.90;99.90;;;;;;5113827;28;20077;-67
2023/07/11 12:30:13;;;;;;;1.52;1.30;;;28.00;99.90;;;;;;5117094;28;20020;-80
2023/07/11 12:32:54;;;;;;;3.75;1.65;;;28.20;99.90;;;;;;5111780;28;20085;-78
2023/07/11 12:35:40;;;;;;;2.92;1.55;;;28.30;99.90;;;;;;5097743;28;20047;-91
2023/07/11 12:38:18;;;;;;;1.95;1.40;;;28.30;99.90;;;;;;5119447;28;20020;-88
2023/07/11 12:41:02;;;;;;;2.08;1.30;;;28.20;99.90;;;;;;5116791;28;20480;-93
2023/07/11 12:43:31;;;;;;;3.95;1.95;;;28.10;99.90;;;;;;5112909;28;20024;-88
2023/07/11 12:46:00;;;;;;;2.88;1.60;;;28.10;99.90;;;;;;5110229;28;20024;-80
2023/07/11 12:48:31;;;;;;;4.82;1.50;;;28.10;99.90;;;;;;5098779;28;20050;-79
2023/07/11 12:51:17;;;;;;;6.63;1.92;;;28.20;99.90;;;;;;5116034;28;21540;-86
2023/07/11 12:53:44;;;;;;;5.93;1.65;;;28.00;99.90;;;;;;5102576;28;20016;-92
2023/07/11 12:56:13;;;;;;;;;;;27.80;99.90;;;;;;5115302;28;20476;-83
2023/07/11 12:58:40;;;;;;;4.57;1.42;;;27.70;99.90;;;;;;5107841;28;19907;-85